sensor_id;sensor_type;location;lat;lon;timestamp;P1;durP1;ratioP1;P2;durP2;ratioP2
22060;SDS011;11194;48.092;-1.382;2022-09-09T00:04:28;15.65;;;5.00;;
22060;SDS011;11194;48.092;-1.382;2022-09-09T00:07:03;11.85;;;4.88;;
22060;SDS011;11194;48.092;-1.382;2022-09-09T00:09:54;19.67;;;4.57;;
22060;SDS011;11194;48.092;-1.382;2022-09-09T00:17:17;15.45;;;5.03;;
22060;SDS011;11194;48.092;-1.382;2022-09-09T00:19:50;16.13;;;4.65;;
22060;SDS011;11194;48.092;-1.382;2022-09-09T00:22:19;13.32;;;4.65;;
22060;SDS011;11194;48.092;-1.382;2022-09-09T00:24:46;14.73;;;4.40;;
22060;SDS011;11194;48.092;-1.382;2022-09-09T00:29:45;17.27;;;5.32;;
22060;SDS011;11194;48.092;-1.382;2022-09-09T00:32:16;14.23;;;4.32;;
22060;SDS011;11194;48.092;-1.382;2022-09-09T00:34:53;23.92;;;5.13;;
22060;SDS011;11194;48.092;-1.382;2022-09-09T00:37:20;17.10;;;5.32;;
22060;SDS011;11194;48.092;-1.382;2022-09-09T00:39:48;15.45;;;5.47;;
22060;SDS011;11194;48.092;-1.382;2022-09-09T00:42:23;17.65;;;4.78;;
22060;SDS011;11194;48.092;-1.382;2022-09-09T00:44:58;18.48;;;5.55;;
22060;SDS011;11194;48.092;-1.382;2022-09-09T00:53:02;14.27;;;4.50;;
22060;SDS011;11194;48.092;-1.382;2022-09-09T00:58:09;18.08;;;5.20;;
22060;SDS011;11194;48.092;-1.382;2022-09-09T01:00:41;12.00;;;4.70;;
22060;SDS011;11194;48.092;-1.382;2022-09-09T01:10:52;18.13;;;5.50;;
22060;SDS011;11194;48.092;-1.382;2022-09-09T01:13:22;14.13;;;5.03;;
22060;SDS011;11194;48.092;-1.382;2022-09-09T01:15:49;19.13;;;5.65;;
22060;SDS011;11194;48.092;-1.382;2022-09-09T01:18:19;15.02;;;5.50;;
22060;SDS011;11194;48.092;-1.382;2022-09-09T01:21:09;17.08;;;6.70;;
22060;SDS011;11194;48.092;-1.382;2022-09-09T01:23:35;20.25;;;5.43;;
22060;SDS011;11194;48.092;-1.382;2022-09-09T01:26:21;17.23;;;5.32;;
22060;SDS011;11194;48.092;-1.382;2022-09-09T01:28:49;15.23;;;5.75;;
22060;SDS011;11194;48.092;-1.382;2022-09-09T04:00:38;9.00;;;3.17;;
22060;SDS011;11194;48.092;-1.382;2022-09-09T04:03:11;9.75;;;3.30;;
22060;SDS011;11194;48.092;-1.382;2022-09-09T04:05:39;12.45;;;3.72;;
22060;SDS011;11194;48.092;-1.382;2022-09-09T04:08:07;10.15;;;3.35;;
22060;SDS011;11194;48.092;-1.382;2022-09-09T04:10:33;7.70;;;3.78;;
22060;SDS011;11194;48.092;-1.382;2022-09-09T04:13:02;8.77;;;2.92;;
22060;SDS011;11194;48.092;-1.382;2022-09-09T04:15:28;11.85;;;3.47;;
22060;SDS011;11194;48.092;-1.382;2022-09-09T04:17:55;11.30;;;3.33;;
22060;SDS011;11194;48.092;-1.382;2022-09-09T04:20:21;11.25;;;3.92;;
22060;SDS011;11194;48.092;-1.382;2022-09-09T04:22:47;13.82;;;3.58;;
22060;SDS011;11194;48.092;-1.382;2022-09-09T04:25:13;13.27;;;3.42;;
22060;SDS011;11194;48.092;-1.382;2022-09-09T04:27:40;14.10;;;3.70;;
22060;SDS011;11194;48.092;-1.382;2022-09-09T04:30:07;10.02;;;3.25;;
22060;SDS011;11194;48.092;-1.382;2022-09-09T04:32:34;11.48;;;3.33;;
22060;SDS011;11194;48.092;-1.382;2022-09-09T04:35:00;10.15;;;3.20;;
22060;SDS011;11194;48.092;-1.382;2022-09-09T04:37:27;12.98;;;3.88;;
22060;SDS011;11194;48.092;-1.382;2022-09-09T04:39:53;12.45;;;3.88;;
22060;SDS011;11194;48.092;-1.382;2022-09-09T04:42:19;15.52;;;4.10;;
22060;SDS011;11194;48.092;-1.382;2022-09-09T04:44:45;13.30;;;3.65;;
22060;SDS011;11194;48.092;-1.382;2022-09-09T04:47:11;15.07;;;5.47;;
22060;SDS011;11194;48.092;-1.382;2022-09-09T04:49:38;9.27;;;3.83;;
22060;SDS011;11194;48.092;-1.382;2022-09-09T04:52:04;12.45;;;3.70;;
22060;SDS011;11194;48.092;-1.382;2022-09-09T04:54:30;15.02;;;4.03;;
22060;SDS011;11194;48.092;-1.382;2022-09-09T04:56:57;11.90;;;3.88;;
22060;SDS011;11194;48.092;-1.382;2022-09-09T04:59:23;12.90;;;3.55;;
22060;SDS011;11194;48.092;-1.382;2022-09-09T05:01:50;9.13;;;4.10;;
22060;SDS011;11194;48.092;-1.382;2022-09-09T05:04:16;13.43;;;4.18;;
22060;SDS011;11194;48.092;-1.382;2022-09-09T05:06:42;13.40;;;3.60;;
22060;SDS011;11194;48.092;-1.382;2022-09-09T05:09:08;14.27;;;3.80;;
22060;SDS011;11194;48.092;-1.382;2022-09-09T05:11:34;13.50;;;5.07;;
22060;SDS011;11194;48.092;-1.382;2022-09-09T05:14:03;11.88;;;3.60;;
22060;SDS011;11194;48.092;-1.382;2022-09-09T05:16:30;13.55;;;3.70;;
22060;SDS011;11194;48.092;-1.382;2022-09-09T05:18:56;15.18;;;4.22;;
22060;SDS011;11194;48.092;-1.382;2022-09-09T05:21:22;12.82;;;3.75;;
22060;SDS011;11194;48.092;-1.382;2022-09-09T05:23:50;10.18;;;3.15;;
22060;SDS011;11194;48.092;-1.382;2022-09-09T05:26:17;16.15;;;3.65;;
22060;SDS011;11194;48.092;-1.382;2022-09-09T05:28:44;11.77;;;3.60;;
22060;SDS011;11194;48.092;-1.382;2022-09-09T05:31:10;13.38;;;3.70;;
22060;SDS011;11194;48.092;-1.382;2022-09-09T05:33:37;17.17;;;4.07;;
22060;SDS011;11194;48.092;-1.382;2022-09-09T05:36:26;12.88;;;3.97;;
22060;SDS011;11194;48.092;-1.382;2022-09-09T05:38:51;10.65;;;3.92;;
22060;SDS011;11194;48.092;-1.382;2022-09-09T05:41:18;13.93;;;4.05;;
22060;SDS011;11194;48.092;-1.382;2022-09-09T05:43:45;12.75;;;3.90;;
22060;SDS011;11194;48.092;-1.382;2022-09-09T05:46:16;18.40;;;4.68;;
22060;SDS011;11194;48.092;-1.382;2022-09-09T05:48:43;16.85;;;4.43;;
22060;SDS011;11194;48.092;-1.382;2022-09-09T05:51:12;15.32;;;4.63;;
22060;SDS011;11194;48.092;-1.382;2022-09-09T05:53:40;13.00;;;4.13;;
22060;SDS011;11194;48.092;-1.382;2022-09-09T05:58:35;13.50;;;4.55;;
22060;SDS011;11194;48.092;-1.382;2022-09-09T06:01:04;21.85;;;4.38;;
22060;SDS011;11194;48.092;-1.382;2022-09-09T06:03:35;13.80;;;3.78;;
22060;SDS011;11194;48.092;-1.382;2022-09-09T06:06:02;16.42;;;4.03;;
22060;SDS011;11194;48.092;-1.382;2022-09-09T06:08:30;17.13;;;3.97;;
22060;SDS011;11194;48.092;-1.382;2022-09-09T06:11:03;17.52;;;4.80;;
22060;SDS011;11194;48.092;-1.382;2022-09-09T06:13:30;13.07;;;3.90;;
22060;SDS011;11194;48.092;-1.382;2022-09-09T06:15:56;11.20;;;3.20;;
22060;SDS011;11194;48.092;-1.382;2022-09-09T06:18:23;15.05;;;4.18;;
22060;SDS011;11194;48.092;-1.382;2022-09-09T06:21:00;10.48;;;3.50;;
22060;SDS011;11194;48.092;-1.382;2022-09-09T06:23:27;11.80;;;3.70;;
22060;SDS011;11194;48.092;-1.382;2022-09-09T06:28:34;12.10;;;4.03;;
22060;SDS011;11194;48.092;-1.382;2022-09-09T06:31:01;7.95;;;3.33;;
22060;SDS011;11194;48.092;-1.382;2022-09-09T06:33:30;11.63;;;2.70;;
22060;SDS011;11194;48.092;-1.382;2022-09-09T06:35:56;10.23;;;3.00;;
22060;SDS011;11194;48.092;-1.382;2022-09-09T06:38:23;8.52;;;2.95;;
22060;SDS011;11194;48.092;-1.382;2022-09-09T06:40:53;7.40;;;3.08;;
22060;SDS011;11194;48.092;-1.382;2022-09-09T06:43:20;11.95;;;3.50;;
22060;SDS011;11194;48.092;-1.382;2022-09-09T06:45:53;8.40;;;2.70;;
22060;SDS011;11194;48.092;-1.382;2022-09-09T06:48:19;8.57;;;2.88;;
22060;SDS011;11194;48.092;-1.382;2022-09-09T06:50:45;8.27;;;2.83;;
22060;SDS011;11194;48.092;-1.382;2022-09-09T06:53:12;8.43;;;2.80;;
22060;SDS011;11194;48.092;-1.382;2022-09-09T06:55:38;8.57;;;2.80;;
22060;SDS011;11194;48.092;-1.382;2022-09-09T06:58:08;6.45;;;2.50;;
22060;SDS011;11194;48.092;-1.382;2022-09-09T07:00:34;7.55;;;2.70;;
22060;SDS011;11194;48.092;-1.382;2022-09-09T07:03:03;10.52;;;2.90;;
22060;SDS011;11194;48.092;-1.382;2022-09-09T07:05:30;13.25;;;3.25;;
22060;SDS011;11194;48.092;-1.382;2022-09-09T07:07:56;9.55;;;3.17;;
22060;SDS011;11194;48.092;-1.382;2022-09-09T07:10:23;8.50;;;3.15;;
22060;SDS011;11194;48.092;-1.382;2022-09-09T07:12:52;11.13;;;3.15;;
22060;SDS011;11194;48.092;-1.382;2022-09-09T07:15:19;10.00;;;3.10;;
22060;SDS011;11194;48.092;-1.382;2022-09-09T07:17:46;7.22;;;3.30;;
22060;SDS011;11194;48.092;-1.382;2022-09-09T07:20:13;7.78;;;3.05;;
22060;SDS011;11194;48.092;-1.382;2022-09-09T07:22:39;7.50;;;2.58;;
22060;SDS011;11194;48.092;-1.382;2022-09-09T07:25:06;8.77;;;2.65;;
22060;SDS011;11194;48.092;-1.382;2022-09-09T07:27:32;8.18;;;2.78;;
22060;SDS011;11194;48.092;-1.382;2022-09-09T07:29:58;7.65;;;2.50;;
22060;SDS011;11194;48.092;-1.382;2022-09-09T07:32:24;7.80;;;2.55;;
22060;SDS011;11194;48.092;-1.382;2022-09-09T07:34:55;7.97;;;3.03;;
22060;SDS011;11194;48.092;-1.382;2022-09-09T07:37:23;9.55;;;2.83;;
22060;SDS011;11194;48.092;-1.382;2022-09-09T07:39:49;7.88;;;2.78;;
22060;SDS011;11194;48.092;-1.382;2022-09-09T07:42:16;9.25;;;3.25;;
22060;SDS011;11194;48.092;-1.382;2022-09-09T07:44:42;9.27;;;2.97;;
22060;SDS011;11194;48.092;-1.382;2022-09-09T07:47:08;8.25;;;2.42;;
22060;SDS011;11194;48.092;-1.382;2022-09-09T07:49:34;9.68;;;3.15;;
22060;SDS011;11194;48.092;-1.382;2022-09-09T07:52:00;7.85;;;2.60;;
22060;SDS011;11194;48.092;-1.382;2022-09-09T07:54:26;9.15;;;2.95;;
22060;SDS011;11194;48.092;-1.382;2022-09-09T07:56:52;10.73;;;3.10;;
22060;SDS011;11194;48.092;-1.382;2022-09-09T07:59:19;8.60;;;2.85;;
22060;SDS011;11194;48.092;-1.382;2022-09-09T08:01:46;8.20;;;2.70;;
22060;SDS011;11194;48.092;-1.382;2022-09-09T08:04:13;7.38;;;2.50;;
22060;SDS011;11194;48.092;-1.382;2022-09-09T08:06:41;15.65;;;3.20;;
22060;SDS011;11194;48.092;-1.382;2022-09-09T08:09:08;10.20;;;2.95;;
22060;SDS011;11194;48.092;-1.382;2022-09-09T08:11:34;11.57;;;3.35;;
22060;SDS011;11194;48.092;-1.382;2022-09-09T08:14:01;8.25;;;2.70;;
22060;SDS011;11194;48.092;-1.382;2022-09-09T08:16:28;9.02;;;3.00;;
22060;SDS011;11194;48.092;-1.382;2022-09-09T08:18:55;7.53;;;2.85;;
22060;SDS011;11194;48.092;-1.382;2022-09-09T08:21:26;10.70;;;3.78;;
22060;SDS011;11194;48.092;-1.382;2022-09-09T08:23:53;6.40;;;2.60;;
22060;SDS011;11194;48.092;-1.382;2022-09-09T08:26:20;10.32;;;2.80;;
22060;SDS011;11194;48.092;-1.382;2022-09-09T08:28:51;15.48;;;2.90;;
22060;SDS011;11194;48.092;-1.382;2022-09-09T08:31:19;10.10;;;2.30;;
22060;SDS011;11194;48.092;-1.382;2022-09-09T08:33:46;10.05;;;2.72;;
22060;SDS011;11194;48.092;-1.382;2022-09-09T08:36:13;6.75;;;2.10;;
22060;SDS011;11194;48.092;-1.382;2022-09-09T08:38:40;4.90;;;2.53;;
22060;SDS011;11194;48.092;-1.382;2022-09-09T08:41:14;9.60;;;2.50;;
22060;SDS011;11194;48.092;-1.382;2022-09-09T08:43:43;4.53;;;2.40;;
22060;SDS011;11194;48.092;-1.382;2022-09-09T08:46:14;5.63;;;2.33;;
22060;SDS011;11194;48.092;-1.382;2022-09-09T08:51:10;8.70;;;2.58;;
22060;SDS011;11194;48.092;-1.382;2022-09-09T08:53:44;8.85;;;2.75;;
22060;SDS011;11194;48.092;-1.382;2022-09-09T08:56:31;16.67;;;2.88;;
22060;SDS011;11194;48.092;-1.382;2022-09-09T08:58:59;6.90;;;2.53;;
22060;SDS011;11194;48.092;-1.382;2022-09-09T09:01:36;10.80;;;2.75;;
22060;SDS011;11194;48.092;-1.382;2022-09-09T09:11:58;8.07;;;2.58;;
22060;SDS011;11194;48.092;-1.382;2022-09-09T09:14:26;8.20;;;2.50;;
22060;SDS011;11194;48.092;-1.382;2022-09-09T09:19:19;8.88;;;2.33;;
22060;SDS011;11194;48.092;-1.382;2022-09-09T09:21:59;7.07;;;2.45;;
22060;SDS011;11194;48.092;-1.382;2022-09-09T09:27:14;6.28;;;2.40;;
22060;SDS011;11194;48.092;-1.382;2022-09-09T09:29:41;8.98;;;2.55;;
22060;SDS011;11194;48.092;-1.382;2022-09-09T09:32:09;9.40;;;2.63;;
22060;SDS011;11194;48.092;-1.382;2022-09-09T09:34:37;6.68;;;2.22;;
22060;SDS011;11194;48.092;-1.382;2022-09-09T09:37:07;13.95;;;1.95;;
22060;SDS011;11194;48.092;-1.382;2022-09-09T09:39:38;6.13;;;2.10;;
22060;SDS011;11194;48.092;-1.382;2022-09-09T09:42:10;10.00;;;2.20;;
22060;SDS011;11194;48.092;-1.382;2022-09-09T09:44:40;8.25;;;2.63;;
22060;SDS011;11194;48.092;-1.382;2022-09-09T09:47:17;7.03;;;2.03;;
22060;SDS011;11194;48.092;-1.382;2022-09-09T09:49:56;8.13;;;2.28;;
22060;SDS011;11194;48.092;-1.382;2022-09-09T09:52:25;6.43;;;2.20;;
22060;SDS011;11194;48.092;-1.382;2022-09-09T09:54:52;4.13;;;2.10;;
22060;SDS011;11194;48.092;-1.382;2022-09-09T09:57:18;7.60;;;2.70;;
22060;SDS011;11194;48.092;-1.382;2022-09-09T09:59:49;6.75;;;2.20;;
22060;SDS011;11194;48.092;-1.382;2022-09-09T10:02:31;5.00;;;2.30;;
22060;SDS011;11194;48.092;-1.382;2022-09-09T10:05:08;6.28;;;1.55;;
22060;SDS011;11194;48.092;-1.382;2022-09-09T10:07:38;7.53;;;2.42;;
22060;SDS011;11194;48.092;-1.382;2022-09-09T10:10:04;6.18;;;2.53;;
22060;SDS011;11194;48.092;-1.382;2022-09-09T10:22:46;6.38;;;2.42;;
22060;SDS011;11194;48.092;-1.382;2022-09-09T10:30:22;8.27;;;2.30;;
22060;SDS011;11194;48.092;-1.382;2022-09-09T10:35:25;8.05;;;2.38;;
22060;SDS011;11194;48.092;-1.382;2022-09-09T10:40:57;7.30;;;1.80;;
22060;SDS011;11194;48.092;-1.382;2022-09-09T10:48:57;6.72;;;2.35;;
22060;SDS011;11194;48.092;-1.382;2022-09-09T10:51:33;7.88;;;2.40;;
22060;SDS011;11194;48.092;-1.382;2022-09-09T10:56:35;5.28;;;2.15;;
22060;SDS011;11194;48.092;-1.382;2022-09-09T10:59:14;6.47;;;2.10;;
22060;SDS011;11194;48.092;-1.382;2022-09-09T11:01:44;6.90;;;2.38;;
22060;SDS011;11194;48.092;-1.382;2022-09-09T11:04:29;8.77;;;2.38;;
22060;SDS011;11194;48.092;-1.382;2022-09-09T11:06:57;7.90;;;2.47;;
22060;SDS011;11194;48.092;-1.382;2022-09-09T11:09:30;6.50;;;2.65;;
22060;SDS011;11194;48.092;-1.382;2022-09-09T11:11:58;5.65;;;2.00;;
22060;SDS011;11194;48.092;-1.382;2022-09-09T11:17:02;5.22;;;2.10;;
22060;SDS011;11194;48.092;-1.382;2022-09-09T11:19:47;5.63;;;2.13;;
22060;SDS011;11194;48.092;-1.382;2022-09-09T11:22:33;6.65;;;1.85;;
22060;SDS011;11194;48.092;-1.382;2022-09-09T11:25:16;7.13;;;2.20;;
22060;SDS011;11194;48.092;-1.382;2022-09-09T11:30:33;5.80;;;1.75;;
22060;SDS011;11194;48.092;-1.382;2022-09-09T11:36:22;4.35;;;1.35;;
22060;SDS011;11194;48.092;-1.382;2022-09-09T11:38:28;4.10;;;1.40;;
22060;SDS011;11194;48.092;-1.382;2022-09-09T11:40:59;2.88;;;1.30;;
22060;SDS011;11194;48.092;-1.382;2022-09-09T11:43:27;3.35;;;1.60;;
22060;SDS011;11194;48.092;-1.382;2022-09-09T11:45:54;2.30;;;1.20;;
22060;SDS011;11194;48.092;-1.382;2022-09-09T11:48:42;3.85;;;1.30;;
22060;SDS011;11194;48.092;-1.382;2022-09-09T11:51:13;6.50;;;1.45;;
22060;SDS011;11194;48.092;-1.382;2022-09-09T11:53:52;5.10;;;1.48;;
22060;SDS011;11194;48.092;-1.382;2022-09-09T11:59:05;3.55;;;1.50;;
22060;SDS011;11194;48.092;-1.382;2022-09-09T12:01:38;4.10;;;1.55;;
22060;SDS011;11194;48.092;-1.382;2022-09-09T12:04:10;4.90;;;1.67;;
22060;SDS011;11194;48.092;-1.382;2022-09-09T12:09:12;7.05;;;1.77;;
22060;SDS011;11194;48.092;-1.382;2022-09-09T12:11:41;4.57;;;1.80;;
22060;SDS011;11194;48.092;-1.382;2022-09-09T12:14:18;4.45;;;1.40;;
22060;SDS011;11194;48.092;-1.382;2022-09-09T12:16:44;4.57;;;1.60;;
22060;SDS011;11194;48.092;-1.382;2022-09-09T12:19:14;6.35;;;1.60;;
22060;SDS011;11194;48.092;-1.382;2022-09-09T12:24:19;5.10;;;1.38;;
22060;SDS011;11194;48.092;-1.382;2022-09-09T12:26:50;3.90;;;1.50;;
22060;SDS011;11194;48.092;-1.382;2022-09-09T12:32:19;4.40;;;1.30;;
22060;SDS011;11194;48.092;-1.382;2022-09-09T12:34:48;3.88;;;1.40;;
22060;SDS011;11194;48.092;-1.382;2022-09-09T12:39:51;5.53;;;1.33;;
22060;SDS011;11194;48.092;-1.382;2022-09-09T12:42:20;2.88;;;1.20;;
22060;SDS011;11194;48.092;-1.382;2022-09-09T12:44:53;2.30;;;1.13;;
22060;SDS011;11194;48.092;-1.382;2022-09-09T12:47:20;2.70;;;0.95;;
22060;SDS011;11194;48.092;-1.382;2022-09-09T12:49:47;2.38;;;0.90;;
22060;SDS011;11194;48.092;-1.382;2022-09-09T12:52:34;2.00;;;0.90;;
22060;SDS011;11194;48.092;-1.382;2022-09-09T12:55:02;3.75;;;1.25;;
22060;SDS011;11194;48.092;-1.382;2022-09-09T12:57:32;2.05;;;1.00;;
22060;SDS011;11194;48.092;-1.382;2022-09-09T13:00:12;3.72;;;1.40;;
22060;SDS011;11194;48.092;-1.382;2022-09-09T13:02:53;4.32;;;1.50;;
22060;SDS011;11194;48.092;-1.382;2022-09-09T13:05:24;4.13;;;1.40;;
22060;SDS011;11194;48.092;-1.382;2022-09-09T13:07:50;3.13;;;1.63;;
22060;SDS011;11194;48.092;-1.382;2022-09-09T13:10:21;5.05;;;1.92;;
22060;SDS011;11194;48.092;-1.382;2022-09-09T13:12:49;4.20;;;1.50;;
22060;SDS011;11194;48.092;-1.382;2022-09-09T13:15:25;4.82;;;1.60;;
22060;SDS011;11194;48.092;-1.382;2022-09-09T13:17:53;3.67;;;1.67;;
22060;SDS011;11194;48.092;-1.382;2022-09-09T13:20:20;4.88;;;1.85;;
22060;SDS011;11194;48.092;-1.382;2022-09-09T13:22:47;3.67;;;1.50;;
22060;SDS011;11194;48.092;-1.382;2022-09-09T13:25:18;4.55;;;1.65;;
22060;SDS011;11194;48.092;-1.382;2022-09-09T13:27:52;2.38;;;1.30;;
22060;SDS011;11194;48.092;-1.382;2022-09-09T13:30:32;2.92;;;1.30;;
22060;SDS011;11194;48.092;-1.382;2022-09-09T13:35:27;4.78;;;1.45;;
22060;SDS011;11194;48.092;-1.382;2022-09-09T13:37:53;6.70;;;1.77;;
22060;SDS011;11194;48.092;-1.382;2022-09-09T13:40:20;3.83;;;1.40;;
22060;SDS011;11194;48.092;-1.382;2022-09-09T13:42:46;3.55;;;1.65;;
22060;SDS011;11194;48.092;-1.382;2022-09-09T13:45:20;6.03;;;1.48;;
22060;SDS011;11194;48.092;-1.382;2022-09-09T13:47:47;3.95;;;1.30;;
22060;SDS011;11194;48.092;-1.382;2022-09-09T13:50:29;3.10;;;1.05;;
22060;SDS011;11194;48.092;-1.382;2022-09-09T13:52:56;4.53;;;1.42;;
22060;SDS011;11194;48.092;-1.382;2022-09-09T13:55:23;5.93;;;1.40;;
22060;SDS011;11194;48.092;-1.382;2022-09-09T13:57:53;3.78;;;1.35;;
22060;SDS011;11194;48.092;-1.382;2022-09-09T14:00:19;4.03;;;1.60;;
22060;SDS011;11194;48.092;-1.382;2022-09-09T14:02:46;5.45;;;1.60;;
22060;SDS011;11194;48.092;-1.382;2022-09-09T14:05:12;3.33;;;1.65;;
22060;SDS011;11194;48.092;-1.382;2022-09-09T14:07:40;5.38;;;1.77;;
22060;SDS011;11194;48.092;-1.382;2022-09-09T14:10:07;3.58;;;1.58;;
22060;SDS011;11194;48.092;-1.382;2022-09-09T14:12:33;3.50;;;1.35;;
22060;SDS011;11194;48.092;-1.382;2022-09-09T14:15:01;6.43;;;1.42;;
22060;SDS011;11194;48.092;-1.382;2022-09-09T14:17:27;2.83;;;1.55;;
22060;SDS011;11194;48.092;-1.382;2022-09-09T14:19:56;7.75;;;1.40;;
22060;SDS011;11194;48.092;-1.382;2022-09-09T14:22:22;2.92;;;1.40;;
22060;SDS011;11194;48.092;-1.382;2022-09-09T14:24:48;4.88;;;1.50;;
22060;SDS011;11194;48.092;-1.382;2022-09-09T14:27:15;3.42;;;1.25;;
22060;SDS011;11194;48.092;-1.382;2022-09-09T14:29:42;3.85;;;1.42;;
22060;SDS011;11194;48.092;-1.382;2022-09-09T14:32:09;2.80;;;1.05;;
22060;SDS011;11194;48.092;-1.382;2022-09-09T14:34:35;2.85;;;1.08;;
22060;SDS011;11194;48.092;-1.382;2022-09-09T14:37:01;2.63;;;1.15;;
22060;SDS011;11194;48.092;-1.382;2022-09-09T14:39:27;4.32;;;1.33;;
22060;SDS011;11194;48.092;-1.382;2022-09-09T14:41:53;3.67;;;1.13;;
22060;SDS011;11194;48.092;-1.382;2022-09-09T14:44:19;1.55;;;0.90;;
22060;SDS011;11194;48.092;-1.382;2022-09-09T14:46:46;2.33;;;1.02;;
22060;SDS011;11194;48.092;-1.382;2022-09-09T14:49:15;1.63;;;0.75;;
22060;SDS011;11194;48.092;-1.382;2022-09-09T14:51:41;4.70;;;1.60;;
22060;SDS011;11194;48.092;-1.382;2022-09-09T14:54:07;1.90;;;0.80;;
22060;SDS011;11194;48.092;-1.382;2022-09-09T14:56:34;1.95;;;0.80;;
22060;SDS011;11194;48.092;-1.382;2022-09-09T14:59:00;2.30;;;1.00;;
22060;SDS011;11194;48.092;-1.382;2022-09-09T15:01:26;2.17;;;1.23;;
22060;SDS011;11194;48.092;-1.382;2022-09-09T15:04:02;3.63;;;1.02;;
22060;SDS011;11194;48.092;-1.382;2022-09-09T15:06:30;2.70;;;1.10;;
22060;SDS011;11194;48.092;-1.382;2022-09-09T15:08:58;3.28;;;1.10;;
22060;SDS011;11194;48.092;-1.382;2022-09-09T15:11:26;3.30;;;1.20;;
22060;SDS011;11194;48.092;-1.382;2022-09-09T15:13:52;4.68;;;1.30;;
22060;SDS011;11194;48.092;-1.382;2022-09-09T15:16:20;3.53;;;1.30;;
22060;SDS011;11194;48.092;-1.382;2022-09-09T15:18:46;3.38;;;1.48;;
22060;SDS011;11194;48.092;-1.382;2022-09-09T15:21:13;2.05;;;1.10;;
22060;SDS011;11194;48.092;-1.382;2022-09-09T15:23:39;2.22;;;1.10;;
22060;SDS011;11194;48.092;-1.382;2022-09-09T15:26:05;2.63;;;1.00;;
22060;SDS011;11194;48.092;-1.382;2022-09-09T15:28:32;3.45;;;1.00;;
22060;SDS011;11194;48.092;-1.382;2022-09-09T15:31:06;3.05;;;1.27;;
22060;SDS011;11194;48.092;-1.382;2022-09-09T15:33:33;2.38;;;0.93;;
22060;SDS011;11194;48.092;-1.382;2022-09-09T15:36:11;2.13;;;0.95;;
22060;SDS011;11194;48.092;-1.382;2022-09-09T15:38:37;2.25;;;1.00;;
22060;SDS011;11194;48.092;-1.382;2022-09-09T15:41:03;2.83;;;1.00;;
22060;SDS011;11194;48.092;-1.382;2022-09-09T15:43:30;2.88;;;0.98;;
22060;SDS011;11194;48.092;-1.382;2022-09-09T15:45:57;2.63;;;0.95;;
22060;SDS011;11194;48.092;-1.382;2022-09-09T15:48:31;4.03;;;1.15;;
22060;SDS011;11194;48.092;-1.382;2022-09-09T15:51:01;6.03;;;1.63;;
22060;SDS011;11194;48.092;-1.382;2022-09-09T15:53:28;3.45;;;1.45;;
22060;SDS011;11194;48.092;-1.382;2022-09-09T15:55:55;5.25;;;1.35;;
22060;SDS011;11194;48.092;-1.382;2022-09-09T15:58:21;5.95;;;1.88;;
22060;SDS011;11194;48.092;-1.382;2022-09-09T16:00:47;2.85;;;1.20;;
22060;SDS011;11194;48.092;-1.382;2022-09-09T16:03:13;5.05;;;1.50;;
22060;SDS011;11194;48.092;-1.382;2022-09-09T16:05:39;3.47;;;1.27;;
22060;SDS011;11194;48.092;-1.382;2022-09-09T16:08:06;3.13;;;1.42;;
22060;SDS011;11194;48.092;-1.382;2022-09-09T16:10:32;5.13;;;1.60;;
22060;SDS011;11194;48.092;-1.382;2022-09-09T16:12:58;4.45;;;1.40;;
22060;SDS011;11194;48.092;-1.382;2022-09-09T16:15:24;4.78;;;1.88;;
22060;SDS011;11194;48.092;-1.382;2022-09-09T16:17:53;4.72;;;1.52;;
22060;SDS011;11194;48.092;-1.382;2022-09-09T16:20:19;1.92;;;1.05;;
22060;SDS011;11194;48.092;-1.382;2022-09-09T16:22:45;1.60;;;1.40;;
22060;SDS011;11194;48.092;-1.382;2022-09-09T16:25:11;5.28;;;1.35;;
22060;SDS011;11194;48.092;-1.382;2022-09-09T16:27:37;3.70;;;1.40;;
22060;SDS011;11194;48.092;-1.382;2022-09-09T16:30:03;4.50;;;1.75;;
22060;SDS011;11194;48.092;-1.382;2022-09-09T16:32:29;3.95;;;1.55;;
22060;SDS011;11194;48.092;-1.382;2022-09-09T16:34:56;2.90;;;1.33;;
22060;SDS011;11194;48.092;-1.382;2022-09-09T16:37:22;2.80;;;1.60;;
22060;SDS011;11194;48.092;-1.382;2022-09-09T16:39:48;2.17;;;1.17;;
22060;SDS011;11194;48.092;-1.382;2022-09-09T16:42:15;3.47;;;1.38;;
22060;SDS011;11194;48.092;-1.382;2022-09-09T16:44:42;5.10;;;1.98;;
22060;SDS011;11194;48.092;-1.382;2022-09-09T16:47:08;4.18;;;1.58;;
22060;SDS011;11194;48.092;-1.382;2022-09-09T16:49:34;5.45;;;1.40;;
22060;SDS011;11194;48.092;-1.382;2022-09-09T16:52:00;4.63;;;1.50;;
22060;SDS011;11194;48.092;-1.382;2022-09-09T16:54:26;4.55;;;1.60;;
22060;SDS011;11194;48.092;-1.382;2022-09-09T16:56:53;5.80;;;1.52;;
22060;SDS011;11194;48.092;-1.382;2022-09-09T16:59:20;5.72;;;1.38;;
22060;SDS011;11194;48.092;-1.382;2022-09-09T17:01:48;6.10;;;1.80;;
22060;SDS011;11194;48.092;-1.382;2022-09-09T17:04:25;4.55;;;1.45;;
22060;SDS011;11194;48.092;-1.382;2022-09-09T17:06:52;5.07;;;1.75;;
22060;SDS011;11194;48.092;-1.382;2022-09-09T17:09:18;5.25;;;1.63;;
22060;SDS011;11194;48.092;-1.382;2022-09-09T17:11:45;5.60;;;1.95;;
22060;SDS011;11194;48.092;-1.382;2022-09-09T17:14:14;4.78;;;1.70;;
22060;SDS011;11194;48.092;-1.382;2022-09-09T17:16:41;5.60;;;1.50;;
22060;SDS011;11194;48.092;-1.382;2022-09-09T17:19:08;6.43;;;1.67;;
22060;SDS011;11194;48.092;-1.382;2022-09-09T17:21:35;4.07;;;1.30;;
22060;SDS011;11194;48.092;-1.382;2022-09-09T17:24:01;2.60;;;1.30;;
22060;SDS011;11194;48.092;-1.382;2022-09-09T17:26:28;4.80;;;1.50;;
22060;SDS011;11194;48.092;-1.382;2022-09-09T17:28:55;6.80;;;1.83;;
22060;SDS011;11194;48.092;-1.382;2022-09-09T17:31:22;3.58;;;1.48;;
22060;SDS011;11194;48.092;-1.382;2022-09-09T17:33:49;2.95;;;1.20;;
22060;SDS011;11194;48.092;-1.382;2022-09-09T17:36:21;3.72;;;1.50;;
22060;SDS011;11194;48.092;-1.382;2022-09-09T17:38:48;4.78;;;1.52;;
22060;SDS011;11194;48.092;-1.382;2022-09-09T17:41:18;5.60;;;1.55;;
22060;SDS011;11194;48.092;-1.382;2022-09-09T17:43:45;2.97;;;1.30;;
22060;SDS011;11194;48.092;-1.382;2022-09-09T17:46:15;3.25;;;1.65;;
22060;SDS011;11194;48.092;-1.382;2022-09-09T17:48:42;6.72;;;1.80;;
22060;SDS011;11194;48.092;-1.382;2022-09-09T17:51:11;3.50;;;1.60;;
22060;SDS011;11194;48.092;-1.382;2022-09-09T17:53:38;2.30;;;1.35;;
22060;SDS011;11194;48.092;-1.382;2022-09-09T17:56:05;4.28;;;1.60;;
22060;SDS011;11194;48.092;-1.382;2022-09-09T17:58:32;4.50;;;1.23;;
22060;SDS011;11194;48.092;-1.382;2022-09-09T18:01:05;3.10;;;1.58;;
22060;SDS011;11194;48.092;-1.382;2022-09-09T18:03:35;2.17;;;1.00;;
22060;SDS011;11194;48.092;-1.382;2022-09-09T18:06:02;3.33;;;0.80;;
22060;SDS011;11194;48.092;-1.382;2022-09-09T18:08:28;3.05;;;0.98;;
22060;SDS011;11194;48.092;-1.382;2022-09-09T18:10:54;4.22;;;1.15;;
22060;SDS011;11194;48.092;-1.382;2022-09-09T18:13:21;5.18;;;0.98;;
22060;SDS011;11194;48.092;-1.382;2022-09-09T18:15:47;2.28;;;0.88;;
22060;SDS011;11194;48.092;-1.382;2022-09-09T18:18:13;1.60;;;1.02;;
22060;SDS011;11194;48.092;-1.382;2022-09-09T18:20:39;1.92;;;1.00;;
22060;SDS011;11194;48.092;-1.382;2022-09-09T18:23:05;2.97;;;0.90;;
22060;SDS011;11194;48.092;-1.382;2022-09-09T18:25:36;2.15;;;1.33;;
22060;SDS011;11194;48.092;-1.382;2022-09-09T18:28:02;5.38;;;1.17;;
22060;SDS011;11194;48.092;-1.382;2022-09-09T18:30:29;1.70;;;0.98;;
22060;SDS011;11194;48.092;-1.382;2022-09-09T18:32:55;2.25;;;1.20;;
22060;SDS011;11194;48.092;-1.382;2022-09-09T18:35:22;2.17;;;0.93;;
22060;SDS011;11194;48.092;-1.382;2022-09-09T18:37:48;2.67;;;1.17;;
22060;SDS011;11194;48.092;-1.382;2022-09-09T18:40:14;3.55;;;1.10;;
22060;SDS011;11194;48.092;-1.382;2022-09-09T18:42:42;2.78;;;1.00;;
22060;SDS011;11194;48.092;-1.382;2022-09-09T18:45:08;3.97;;;1.30;;
22060;SDS011;11194;48.092;-1.382;2022-09-09T18:47:34;2.85;;;1.30;;
22060;SDS011;11194;48.092;-1.382;2022-09-09T18:50:01;2.03;;;1.10;;